Prince Madog — ZNLJ5 — position and weather

sailwx.info

Track history (hours):
 
Tides and Currents Weather Stations Pressure Air Temp Water Temp Dewpoint Dewpoint Depression Visibility Wind Speed Wind Dir Waves Ship Positions

Oceanographic research ship Prince Madog (UK)

Detailed information on ship capabilities available from University of Delaware's Ocean Information Center.

Last reported at 2019-Apr-18 02:19 UTC. Time now 2019-Apr-18 20:46 UTC.
Position N 52°46' W 004°56'.

Length 35 m; draft 3.8 m.

Type: Ship. MMSI: 235234000.

Date/timePositionNaut miles runAvg speedWind from/ knotsBaromVisibWave heightAir tempDewpointWater temp
2019-Apr-18 02:19N 52°46' W 004°56'611.7
2019-Apr-18 01:47N 52°52' W 004°56'411.8
2019-Apr-18 01:28N 52°55' W 004°56'41 5.2
2019-Apr-17 17:36N 53°26' W 004°10'0 3.9
2019-Apr-17 17:29N 53°26' W 004°11'1 1.5
2019-Apr-17 16:46N 53°26' W 004°09'1 2.7
2019-Apr-17 16:31N 53°27' W 004°09'2 3.8
2019-Apr-17 16:00N 53°29' W 004°09'2 3.3
2019-Apr-17 15:31N 53°30' W 004°09'4 8.6
2019-Apr-17 15:00N 53°34' W 004°06'1 2.3
2019-Apr-17 14:30N 53°35' W 004°07'5 6.6
2019-Apr-17 13:45N 53°34' W 003°59'1 3.9
2019-Apr-17 13:30N 53°34' W 003°58'1 2.0
2019-Apr-17 13:00N 53°34' W 003°60'5 9.8
2019-Apr-17 12:30N 53°34' W 003°51'1 1.0
2019-Apr-17 12:00N 53°34' W 003°51'2 3.2
2019-Apr-17 11:30N 53°32' W 003°51'4 7.6
2019-Apr-17 11:00N 53°29' W 003°48'1 2.8
2019-Apr-17 10:30N 53°29' W 003°50'4 8.6
2019-Apr-17 10:01N 53°25' W 003°55'4 8.4
2019-Apr-17 09:30N 53°23' W 004°00'4 7.9
2019-Apr-17 09:00N 53°19' W 004°02'4 7.3
2019-Apr-17 08:31N 53°16' W 004°05'  
2019-Apr-13 08:16N 53°14' W 004°09'3 7.5
2019-Apr-13 07:54N 53°16' W 004°05'3 6.7
2019-Apr-13 07:29N 53°18' W 004°02'2 3.4
2019-Apr-13 06:59N 53°19' W 004°04'0 0.0
2019-Apr-13 05:29N 53°19' W 004°05'0 0.0
2019-Apr-13 02:38N 53°19' W 004°04'0 0.1
2019-Apr-13 02:29N 53°19' W 004°04'0 0.0
2019-Apr-13 01:59N 53°19' W 004°04'0 0.0
2019-Apr-13 01:29N 53°19' W 004°04'0 0.0
2019-Apr-13 00:59N 53°19' W 004°04'0 0.0
2019-Apr-12 22:47N 53°19' W 004°05'0 0.0
2019-Apr-12 22:14N 53°19' W 004°05'0 0.0
2019-Apr-12 20:35N 53°19' W 004°05'0 0.0
2019-Apr-12 20:29N 53°19' W 004°05'0 0.0
2019-Apr-12 19:59N 53°19' W 004°05'0 0.0
2019-Apr-12 19:29N 53°19' W 004°05'0 0.0
2019-Apr-12 18:35N 53°19' W 004°05'0 0.0
2019-Apr-12 17:56N 53°19' W 004°05'0 0.0
2019-Apr-12 17:30N 53°19' W 004°05'5 3.9
2019-Apr-12 16:20N 53°23' W 004°10'45 5.6
2019-Apr-12 08:11N 54°04' W 004°42'22 1.1
2019-Apr-11 11:47N 54°25' W 004°50'1 2.6
2019-Apr-11 11:30N 54°25' W 004°49'2 3.1
2019-Apr-11 11:00N 54°25' W 004°47'1 2.7
2019-Apr-11 10:29N 54°25' W 004°44'2 3.2
2019-Apr-11 09:59N 54°25' W 004°42'18 0.4
2019-Apr-09 16:03N 54°14' W 004°17'0 2.9
2019-Apr-09 15:59N 54°14' W 004°17'4 2.9
2019-Apr-09 14:32N 54°10' W 004°17'1 2.1
2019-Apr-09 14:16N 54°10' W 004°16'2 4.2
2019-Apr-09 13:53N 54°11' W 004°14'3 4.4
2019-Apr-09 13:07N 54°13' W 004°10'4 1.7
2019-Apr-09 10:49N 54°11' W 004°06'1 3.0
2019-Apr-09 10:27N 54°10' W 004°07'0 0.8
2019-Apr-09 09:56N 54°10' W 004°08'3 6.5
2019-Apr-09 09:29N 54°08' W 004°11'1 1.2
2019-Apr-09 08:50N 54°08' W 004°12'5 4.6
2019-Apr-09 07:48N 54°07' W 004°20'1 2.6
2019-Apr-09 07:27N 54°07' W 004°21'4 0.3
2019-Apr-08 17:28N 54°09' W 004°26'11 2.6
2019-Apr-08 13:03N 54°02' W 004°11'1 6.2
2019-Apr-08 12:55N 54°03' W 004°10'8 2.6
2019-Apr-08 09:45N 53°59' W 004°22'3 3.4
2019-Apr-08 08:44N 54°01' W 004°27'3 3.8
2019-Apr-08 07:55N 54°01' W 004°32'  
Track history (hours):
 
Tides and Currents Weather Stations Pressure Air Temp Water Temp Dewpoint Dewpoint Depression Visibility Wind Speed Wind Dir Waves Ship Positions

Oceanographic research ship Prince Madog (UK)

Detailed information on ship capabilities available from University of Delaware's Ocean Information Center.

Last reported at 2019-Apr-18 02:19 UTC. Time now 2019-Apr-18 20:46 UTC.
Position N 52°46' W 004°56'.

Length 35 m; draft 3.8 m.

Type: Ship. MMSI: 235234000.

Date/timePositionNaut miles runAvg speedWind from/ knotsBaromVisibWave heightAir tempDewpointWater temp
2019-Apr-18 02:19N 52°46' W 004°56'611.7
2019-Apr-18 01:47N 52°52' W 004°56'411.8
2019-Apr-18 01:28N 52°55' W 004°56'41 5.2
2019-Apr-17 17:36N 53°26' W 004°10'0 3.9
2019-Apr-17 17:29N 53°26' W 004°11'1 1.5
2019-Apr-17 16:46N 53°26' W 004°09'1 2.7
2019-Apr-17 16:31N 53°27' W 004°09'2 3.8
2019-Apr-17 16:00N 53°29' W 004°09'2 3.3
2019-Apr-17 15:31N 53°30' W 004°09'4 8.6
2019-Apr-17 15:00N 53°34' W 004°06'1 2.3
2019-Apr-17 14:30N 53°35' W 004°07'5 6.6
2019-Apr-17 13:45N 53°34' W 003°59'1 3.9
2019-Apr-17 13:30N 53°34' W 003°58'1 2.0
2019-Apr-17 13:00N 53°34' W 003°60'5 9.8
2019-Apr-17 12:30N 53°34' W 003°51'1 1.0
2019-Apr-17 12:00N 53°34' W 003°51'2 3.2
2019-Apr-17 11:30N 53°32' W 003°51'4 7.6
2019-Apr-17 11:00N 53°29' W 003°48'1 2.8
2019-Apr-17 10:30N 53°29' W 003°50'4 8.6
2019-Apr-17 10:01N 53°25' W 003°55'4 8.4
2019-Apr-17 09:30N 53°23' W 004°00'4 7.9
2019-Apr-17 09:00N 53°19' W 004°02'4 7.3
2019-Apr-17 08:31N 53°16' W 004°05'  
2019-Apr-13 08:16N 53°14' W 004°09'3 7.5
2019-Apr-13 07:54N 53°16' W 004°05'3 6.7
2019-Apr-13 07:29N 53°18' W 004°02'2 3.4
2019-Apr-13 06:59N 53°19' W 004°04'0 0.0
2019-Apr-13 05:29N 53°19' W 004°05'0 0.0
2019-Apr-13 02:38N 53°19' W 004°04'0 0.1
2019-Apr-13 02:29N 53°19' W 004°04'0 0.0
2019-Apr-13 01:59N 53°19' W 004°04'0 0.0
2019-Apr-13 01:29N 53°19' W 004°04'0 0.0
2019-Apr-13 00:59N 53°19' W 004°04'0 0.0
2019-Apr-12 22:47N 53°19' W 004°05'0 0.0
2019-Apr-12 22:14N 53°19' W 004°05'0 0.0
2019-Apr-12 20:35N 53°19' W 004°05'0 0.0
2019-Apr-12 20:29N 53°19' W 004°05'0 0.0
2019-Apr-12 19:59N 53°19' W 004°05'0 0.0
2019-Apr-12 19:29N 53°19' W 004°05'0 0.0
2019-Apr-12 18:35N 53°19' W 004°05'0 0.0
2019-Apr-12 17:56N 53°19' W 004°05'0 0.0
2019-Apr-12 17:30N 53°19' W 004°05'5 3.9
2019-Apr-12 16:20N 53°23' W 004°10'45 5.6
2019-Apr-12 08:11N 54°04' W 004°42'22 1.1
2019-Apr-11 11:47N 54°25' W 004°50'1 2.6
2019-Apr-11 11:30N 54°25' W 004°49'2 3.1
2019-Apr-11 11:00N 54°25' W 004°47'1 2.7
2019-Apr-11 10:29N 54°25' W 004°44'2 3.2
2019-Apr-11 09:59N 54°25' W 004°42'18 0.4
2019-Apr-09 16:03N 54°14' W 004°17'0 2.9
2019-Apr-09 15:59N 54°14' W 004°17'4 2.9
2019-Apr-09 14:32N 54°10' W 004°17'1 2.1
2019-Apr-09 14:16N 54°10' W 004°16'2 4.2
2019-Apr-09 13:53N 54°11' W 004°14'3 4.4
2019-Apr-09 13:07N 54°13' W 004°10'4 1.7
2019-Apr-09 10:49N 54°11' W 004°06'1 3.0
2019-Apr-09 10:27N 54°10' W 004°07'0 0.8
2019-Apr-09 09:56N 54°10' W 004°08'3 6.5
2019-Apr-09 09:29N 54°08' W 004°11'1 1.2
2019-Apr-09 08:50N 54°08' W 004°12'5 4.6
2019-Apr-09 07:48N 54°07' W 004°20'1 2.6
2019-Apr-09 07:27N 54°07' W 004°21'4 0.3
2019-Apr-08 17:28N 54°09' W 004°26'11 2.6
2019-Apr-08 13:03N 54°02' W 004°11'1 6.2
2019-Apr-08 12:55N 54°03' W 004°10'8 2.6
2019-Apr-08 09:45N 53°59' W 004°22'3 3.4
2019-Apr-08 08:44N 54°01' W 004°27'3 3.8
2019-Apr-08 07:55N 54°01' W 004°32'  

Dump ship's entire track history